PWSweather.com
Personal Weather Stations
Station Observations
EDMONTONWEATHER
Edmonton, Edmonton, AB T5N 0Z3

EdmontonEdmonton, AB T5N 0Z3

Lat: 53.54155, Lon: -113.53337690000001

Elevation: 630

Station Type: Netatmo

http://my.meteoware.com/YegWeather/

Latest ConditionsUpdated 4:14:00 AM MDT Monday, Aug 26, 2019
Currently Today's Max Today's Min Today's Average
Temperature 51.8°F11.0°C 57.7°F14.3°C 51.8°F11.0°C 54.2°F12.3°C
Dew Point 46.9°F8.3°C 50.9°F10.5°C 46.9°F8.3°C 48.9°F9.4°C
Winds 1.8 mph W2.9 kmh W 1.8 mph -2.9 kmh - - 1.4 mph 2.3 kmh
Wind Gusts 7.4 mph11.9 kmh 7.4 mph11.9 kmh - -
Humidity 87% 87% 82% 86%
Pressure 30.05 in1017.6 mb 30.05 in1017.6 mb 30.03 in1016.9 mb -
Hour Temp Dew Point Humidity Winds Wind Gusts Pressure Precip Precip Rate Daily Precip Total
04:14 AM 51.8°F11.0°C 46.9°F8.3°C 87% 1.8 mph W2.9 kmh W 7.4 mph11.9 kmh 30.05 in1017.6 mb 0.00 in0.0 mm 0.00 in0.0 mm 0.00 in0.0 mm
04:04 AM 52.0°F11.1°C 47.1°F8.4°C 87% 1.8 mph WSW2.9 kmh WSW 4.9 mph7.9 kmh 30.04 in1017.3 mb 0.00 in0.0 mm 0.00 in0.0 mm 0.00 in0.0 mm
03:54 AM 52.0°F11.1°C 47.1°F8.4°C 87% 1.3 mph W2.1 kmh W 3.1 mph5.0 kmh 30.04 in1017.3 mb 0.00 in0.0 mm 0.00 in0.0 mm 0.00 in0.0 mm
03:44 AM 52.2°F11.2°C 47.3°F8.5°C 87% 1.3 mph W2.1 kmh W 4.9 mph7.9 kmh 30.04 in1017.3 mb 0.00 in0.0 mm 0.00 in0.0 mm 0.00 in0.0 mm
03:34 AM 52.5°F11.4°C 47.7°F8.7°C 87% 1.8 mph WSW2.9 kmh WSW 4.9 mph7.9 kmh 30.04 in1017.3 mb 0.00 in0.0 mm 0.00 in0.0 mm 0.00 in0.0 mm
03:24 AM 52.7°F11.5°C 47.8°F8.8°C 87% 1.8 mph WSW2.9 kmh WSW 5.6 mph9.0 kmh 30.04 in1017.3 mb 0.00 in0.0 mm 0.00 in0.0 mm 0.00 in0.0 mm
03:14 AM 52.9°F11.6°C 48.0°F8.9°C 87% 1.8 mph WSW2.9 kmh WSW 4.3 mph6.9 kmh 30.04 in1017.3 mb 0.00 in0.0 mm 0.00 in0.0 mm 0.00 in0.0 mm
03:03 AM 52.9°F11.6°C 48.0°F8.9°C 87% 1.3 mph WSW2.1 kmh WSW 4.9 mph7.9 kmh 30.04 in1017.3 mb 0.00 in0.0 mm 0.00 in0.0 mm 0.00 in0.0 mm
02:53 AM 53.1°F11.7°C 48.2°F9.0°C 87% 1.8 mph WSW2.9 kmh WSW 6.3 mph10.1 kmh 30.04 in1017.3 mb 0.00 in0.0 mm 0.00 in0.0 mm 0.00 in0.0 mm
02:44 AM 53.2°F11.8°C 48.4°F9.1°C 87% 1.3 mph W2.1 kmh W 3.8 mph6.1 kmh 30.03 in1016.9 mb 0.00 in0.0 mm 0.00 in0.0 mm 0.00 in0.0 mm
02:33 AM 53.4°F11.9°C 48.6°F9.2°C 87% 1.3 mph W2.1 kmh W 7.4 mph11.9 kmh 30.03 in1016.9 mb 0.00 in0.0 mm 0.00 in0.0 mm 0.00 in0.0 mm
02:23 AM 53.4°F11.9°C 48.6°F9.2°C 87% 1.3 mph W2.1 kmh W 4.3 mph6.9 kmh 30.03 in1016.9 mb 0.00 in0.0 mm 0.00 in0.0 mm 0.00 in0.0 mm
02:13 AM 53.6°F12.0°C 48.7°F9.3°C 87% 1.3 mph WSW2.1 kmh WSW 4.9 mph7.9 kmh 30.03 in1016.9 mb 0.00 in0.0 mm 0.00 in0.0 mm 0.00 in0.0 mm
02:03 AM 53.8°F12.1°C 48.9°F9.4°C 87% 0.7 mph W1.1 kmh W 3.1 mph5.0 kmh 30.03 in1016.9 mb 0.00 in0.0 mm 0.00 in0.0 mm 0.00 in0.0 mm
01:52 AM 54.0°F12.2°C 49.1°F9.5°C 87% 1.3 mph WSW2.1 kmh WSW 3.8 mph6.1 kmh 30.03 in1016.9 mb 0.00 in0.0 mm 0.00 in0.0 mm 0.00 in0.0 mm
01:43 AM 54.3°F12.4°C 49.5°F9.7°C 87% 1.3 mph W2.1 kmh W 5.6 mph9.0 kmh 30.03 in1016.9 mb 0.00 in0.0 mm 0.00 in0.0 mm 0.00 in0.0 mm
01:33 AM 54.5°F12.5°C 49.6°F9.8°C 87% 1.3 mph W2.1 kmh W 3.8 mph6.1 kmh 30.03 in1016.9 mb 0.00 in0.0 mm 0.00 in0.0 mm 0.00 in0.0 mm
01:23 AM 54.9°F12.7°C 50.0°F10.0°C 87% 1.3 mph W2.1 kmh W 3.8 mph6.1 kmh 30.03 in1016.9 mb 0.00 in0.0 mm 0.00 in0.0 mm 0.00 in0.0 mm
01:12 AM 55.0°F12.8°C 49.8°F9.9°C 86% 1.3 mph W2.1 kmh W 4.9 mph7.9 kmh 30.04 in1017.3 mb 0.00 in0.0 mm 0.00 in0.0 mm 0.00 in0.0 mm
01:02 AM 55.4°F13.0°C 50.0°F10.0°C 86% 0.7 mph W1.1 kmh W 2.5 mph4.0 kmh 30.04 in1017.3 mb 0.00 in0.0 mm 0.00 in0.0 mm 0.00 in0.0 mm
12:52 AM 55.8°F13.2°C 50.0°F10.0°C 85% 1.3 mph W2.1 kmh W 3.1 mph5.0 kmh 30.04 in1017.3 mb 0.00 in0.0 mm 0.00 in0.0 mm 0.00 in0.0 mm
12:42 AM 56.1°F13.4°C 50.4°F10.2°C 85% 1.3 mph WSW2.1 kmh WSW 3.8 mph6.1 kmh 30.03 in1016.9 mb 0.00 in0.0 mm 0.00 in0.0 mm 0.00 in0.0 mm
12:32 AM 56.7°F13.7°C 50.5°F10.3°C 84% 1.3 mph W2.1 kmh W 3.8 mph6.1 kmh 30.03 in1016.9 mb 0.00 in0.0 mm 0.00 in0.0 mm 0.00 in0.0 mm
12:22 AM 56.8°F13.8°C 50.4°F10.2°C 83% 1.3 mph W2.1 kmh W 3.1 mph5.0 kmh 30.03 in1016.9 mb 0.00 in0.0 mm 0.00 in0.0 mm 0.00 in0.0 mm
12:12 AM 57.4°F14.1°C 50.9°F10.5°C 83% 1.3 mph W2.1 kmh W 4.3 mph6.9 kmh 30.04 in1017.3 mb 0.00 in0.0 mm 0.00 in0.0 mm 0.00 in0.0 mm
12:01 AM 57.7°F14.3°C 50.7°F10.4°C 82% 1.8 mph W2.9 kmh W 6.3 mph10.1 kmh 30.03 in1016.9 mb 0.00 in0.0 mm 0.00 in0.0 mm 0.00 in0.0 mm